Terminal Aerodrome Forecast
Issued by NWS

Home | Current Version | Previous Version | Text Only | Print | Product List | Glossary On
Versions: 1 2 3 4 5 6 7 8 9 10 11 12 13 14 15 16 17 18 19 20 21 22 23 24 25 26 27 28 29 30 31 32 33 34 35 36 37 38 39 40 41 42 43 44 45 46 47
000
FTUS41 KBOX 211326 AAA
TAFMHT
TAF AMD
KMHT 211326Z 2113/2212 17006KT P6SM SCT009 BKN015
     FM211500 17007KT P6SM BKN020
     FM211700 16008KT P6SM BKN035
     FM220000 VRB03KT P6SM BKN020
     FM220600 VRB03KT P6SM BKN008
     FM221000 VRB03KT P6SM BKN250=

USA.gov is the U.S. government's official web portal to all federal, state and local government web resources and services.